This is the latest recevied weather packets stored in our database for station/object DB0TBG. If no packets are shown the sender has not sent any weather packets the latest 10 day(s).
| Time | Temp. | Humidity | Pressure | Rain* | Wind** | Luminosity | Snow |
|---|---|---|---|---|---|---|---|
| 1777700830 | 14.44° C | 38% | 980 hPa | 0 mm | 0 m/s | - | - |
| 1777700227 | 14.44° C | 39% | 980 hPa | 0 mm | 0 m/s | - | - |
| 1777699628 | 12.78° C | 42% | 980 hPa | 0 mm | 0 m/s | - | - |
| 1777699023 | 12.22° C | 42% | 980 hPa | 0 mm | 0 m/s | - | - |
| 1777698405 | 11.67° C | 44% | 980 hPa | 0 mm | 0 m/s | - | - |
| 1777697806 | 11.67° C | 44% | 980 hPa | 0 mm | 0 m/s | - | - |
| 1777697205 | 11.67° C | 44% | 980 hPa | 0 mm | 0 m/s | - | - |
| 1777696596 | 11.67° C | 44% | 980 hPa | 0 mm | 0 m/s | - | - |
| 1777695991 | 11.67° C | 44% | 980 hPa | 0 mm | 0 m/s | - | - |
| 1777695382 | 11.67° C | 43% | 980 hPa | 0 mm | 0 m/s | - | - |
| 1777694783 | 11.67° C | 44% | 980 hPa | 0 mm | 0 m/s | - | - |
| 1777694182 | 11.67° C | 44% | 980 hPa | 0 mm | 0 m/s | - | - |
| 1777693579 | 11.11° C | 45% | 980 hPa | 0 mm | 0 m/s | - | - |
| 1777692966 | 11.11° C | 45% | 980 hPa | 0 mm | 0 m/s | - | - |
| 1777692324 | 11.11° C | 45% | 980 hPa | 0 mm | 0 m/s | - | - |
| 1777691721 | 11.11° C | 45% | 980 hPa | 0 mm | 0 m/s | - | - |
| 1777691122 | 11.11° C | 44% | 980 hPa | 0 mm | 0 m/s | - | - |
| 1777690523 | 11.67° C | 42% | 980 hPa | 0 mm | 0 m/s | - | - |
| 1777689910 | 11.67° C | 41% | 980 hPa | 0 mm | 0 m/s | - | - |
| 1777689310 | 12.22° C | 41% | 980 hPa | 0 mm | 0 m/s | - | - |
| 1777688711 | 11.67° C | 41% | 981 hPa | 0 mm | 0 m/s | - | - |
| 1777688109 | 11.67° C | 41% | 981 hPa | 0 mm | 0 m/s | - | - |
| 1777687509 | 12.22° C | 40% | 981 hPa | 0 mm | 0 m/s | - | - |
| 1777686909 | 12.78° C | 39% | 981 hPa | 0 mm | 0 m/s | - | - |
| 1777686304 | 12.78° C | 39% | 981 hPa | 0 mm | 0 m/s | - | - |
* Rain latest hour (hover to see other rain measurements)
** Current wind speed in m/s (hover to see current wind gust speed)